createdAt,value
2022-10-18T00:00:30.049Z,78.88
2022-10-18T00:01:31.570Z,78.82
2022-10-18T00:02:33.573Z,78.96
2022-10-18T00:03:36.684Z,78.78
2022-10-18T00:04:38.198Z,78.56
2022-10-18T00:05:40.072Z,79.07
2022-10-18T00:06:43.528Z,78.97
2022-10-18T00:07:45.669Z,78.91
2022-10-18T00:08:47.125Z,79.11
2022-10-18T00:09:48.659Z,78.84
2022-10-18T00:10:50.491Z,78.93
2022-10-18T00:11:52.468Z,78.94
2022-10-18T00:12:55.096Z,79.03
2022-10-18T00:13:57.639Z,78.85
2022-10-18T00:14:59.119Z,78.63
2022-10-18T00:16:03.623Z,78.82
2022-10-18T00:17:05.465Z,78.79
2022-10-18T00:18:06.929Z,78.88
2022-10-18T00:19:08.390Z,78.92
2022-10-18T00:20:10.873Z,78.99
2022-10-18T00:21:16.101Z,79.21
2022-10-18T00:22:17.646Z,79.27
2022-10-18T00:23:19.073Z,79.18
2022-10-18T00:24:20.577Z,78.99
2022-10-18T00:25:22.361Z,78.96
2022-10-18T00:26:26.825Z,78.89
2022-10-18T00:27:32.352Z,78.68
2022-10-18T00:28:35.248Z,78.55
2022-10-18T00:29:36.758Z,79.26
2022-10-18T00:30:38.280Z,78.77
2022-10-18T00:31:40.084Z,79.17
2022-10-18T00:32:42.551Z,79.50
2022-10-18T00:33:46.075Z,79.82
2022-10-18T00:34:47.765Z,79.41
2022-10-18T00:35:49.354Z,79.66
2022-10-18T00:36:51.145Z,79.60
2022-10-18T00:37:52.564Z,79.19
2022-10-18T00:38:54.365Z,79.16
2022-10-18T00:39:55.793Z,79.33
2022-10-18T00:40:57.470Z,79.35
2022-10-18T00:41:59.231Z,79.07
2022-10-18T00:43:00.737Z,79.28
2022-10-18T00:44:07.772Z,79.11
2022-10-18T00:45:19.295Z,79.20
2022-10-18T00:46:21.352Z,79.24
2022-10-18T00:47:22.832Z,79.43
2022-10-18T00:48:24.657Z,79.14
2022-10-18T00:49:32.648Z,79.41
2022-10-18T00:50:35.432Z,79.22
2022-10-18T00:51:45.343Z,79.61
2022-10-18T00:52:58.371Z,79.39
2022-10-18T00:54:00.319Z,79.00
2022-10-18T00:55:03.182Z,78.82
2022-10-18T00:56:04.951Z,78.86
2022-10-18T00:57:07.823Z,78.90
2022-10-18T00:58:11.053Z,79.47
2022-10-18T00:59:14.742Z,79.30
2022-10-18T01:00:16.230Z,79.08
2022-10-18T01:01:17.829Z,79.40
2022-10-18T01:02:19.880Z,79.09
2022-10-18T01:03:21.355Z,78.70
2022-10-18T01:04:23.156Z,79.03
2022-10-18T01:05:25.785Z,79.03
2022-10-18T01:06:29.094Z,79.34
2022-10-18T01:07:42.676Z,79.29
2022-10-18T01:09:20.489Z,79.39
2022-10-18T01:10:27.917Z,79.34
2022-10-18T01:11:51.430Z,79.29
2022-10-18T01:13:14.375Z,78.86
2022-10-18T01:14:34.144Z,78.83
2022-10-18T01:15:50.914Z,79.14
2022-10-18T01:17:22.018Z,79.25
2022-10-18T01:18:49.489Z,79.32
2022-10-18T01:19:50.863Z,79.32
2022-10-18T01:20:52.235Z,78.77
2022-10-18T01:22:09.226Z,78.94
2022-10-18T01:23:31.802Z,78.86
2022-10-18T01:24:47.041Z,79.05
2022-10-18T01:26:11.606Z,79.00
2022-10-18T01:27:22.075Z,78.69
2022-10-18T01:28:51.711Z,78.84
2022-10-18T01:30:08.679Z,78.99
2022-10-18T01:31:22.847Z,79.03
2022-10-18T01:32:31.459Z,79.19
2022-10-18T01:33:41.816Z,79.03
2022-10-18T01:34:45.940Z,78.94
2022-10-18T01:35:53.434Z,79.01
2022-10-18T01:36:57.361Z,79.24
2022-10-18T01:38:03.158Z,79.01
2022-10-18T01:39:09.061Z,78.92
2022-10-18T01:40:13.149Z,78.53
2022-10-18T01:41:16.714Z,78.57
2022-10-18T01:42:20.966Z,78.52
2022-10-18T01:43:24.258Z,78.45
2022-10-18T01:44:29.469Z,78.31
2022-10-18T01:45:32.745Z,78.39
2022-10-18T01:46:35.370Z,78.73
2022-10-18T01:47:37.138Z,78.34
2022-10-18T01:48:39.289Z,78.66
2022-10-18T01:49:40.870Z,78.79
2022-10-18T01:50:42.353Z,78.54
2022-10-18T01:51:44.221Z,78.48
2022-10-18T01:52:50.191Z,78.59
2022-10-18T01:53:51.845Z,78.75
2022-10-18T01:54:55.469Z,78.39
2022-10-18T01:56:27.848Z,79.28
2022-10-18T01:57:35.420Z,79.15
2022-10-18T01:58:55.154Z,78.66
2022-10-18T02:00:12.089Z,79.34
2022-10-18T02:01:45.892Z,79.05
2022-10-18T02:02:54.221Z,79.02
2022-10-18T02:04:05.635Z,79.03
2022-10-18T02:05:13.144Z,79.47
2022-10-18T02:06:28.031Z,79.72
2022-10-18T02:08:00.132Z,79.79
2022-10-18T02:09:21.095Z,78.92
2022-10-18T02:10:49.985Z,79.43
2022-10-18T02:11:54.571Z,79.31
2022-10-18T02:12:57.620Z,79.42
2022-10-18T02:14:12.375Z,79.31
2022-10-18T02:15:19.903Z,79.52
2022-10-18T02:16:46.233Z,79.69
2022-10-18T02:17:47.702Z,79.27
2022-10-18T02:18:55.169Z,79.53
2022-10-18T02:19:57.150Z,78.86
2022-10-18T02:21:01.429Z,78.95
2022-10-18T02:22:04.630Z,79.14
2022-10-18T02:23:08.475Z,79.17
2022-10-18T02:24:13.037Z,79.29
2022-10-18T02:25:20.898Z,79.09
2022-10-18T02:26:22.473Z,79.58
2022-10-18T02:27:24.567Z,79.73
2022-10-18T02:28:26.497Z,79.68
2022-10-18T02:29:29.236Z,79.73
2022-10-18T02:30:38.412Z,79.59
2022-10-18T02:31:45.591Z,79.73
2022-10-18T02:32:57.006Z,79.97
2022-10-18T02:34:22.316Z,79.11
2022-10-18T02:35:35.443Z,79.56
2022-10-18T02:36:47.936Z,79.67
2022-10-18T02:37:50.634Z,79.87
2022-10-18T02:38:56.612Z,80.08
2022-10-18T02:39:58.486Z,79.67
2022-10-18T02:40:59.968Z,79.46
2022-10-18T02:42:07.327Z,79.76
2022-10-18T02:43:08.789Z,79.48
2022-10-18T02:44:11.238Z,79.59
2022-10-18T02:45:13.438Z,79.27
2022-10-18T02:46:14.979Z,79.47
2022-10-18T02:47:16.483Z,79.48
2022-10-18T02:48:17.944Z,79.41
2022-10-18T02:49:19.384Z,79.30
2022-10-18T02:50:20.798Z,79.32
2022-10-18T02:51:22.261Z,78.95
2022-10-18T02:52:24.248Z,79.09
2022-10-18T02:53:25.659Z,79.17
2022-10-18T02:54:27.210Z,78.86
2022-10-18T02:56:35.539Z,79.59
2022-10-18T02:57:37.542Z,79.58
2022-10-18T02:58:39.000Z,79.26
2022-10-18T02:59:40.410Z,79.27
2022-10-18T03:00:41.882Z,79.30
2022-10-18T03:01:43.446Z,78.86
2022-10-18T03:02:45.102Z,78.74
2022-10-18T03:03:46.557Z,79.29
2022-10-18T03:04:47.974Z,78.97
2022-10-18T03:05:50.414Z,78.69
2022-10-18T03:06:51.836Z,78.83
2022-10-18T03:07:53.575Z,78.81
2022-10-18T03:08:55.038Z,78.59
2022-10-18T03:09:56.458Z,79.12
2022-10-18T03:10:57.888Z,78.97
2022-10-18T03:11:59.436Z,79.15
2022-10-18T03:13:00.954Z,78.97
2022-10-18T03:14:02.524Z,78.78
2022-10-18T03:15:04.290Z,78.90
2022-10-18T03:16:05.766Z,78.80
2022-10-18T03:17:07.523Z,78.68
2022-10-18T03:18:09.248Z,78.91
2022-10-18T03:19:10.829Z,78.56
2022-10-18T03:20:12.292Z,78.66
2022-10-18T03:21:13.856Z,78.62
2022-10-18T03:22:15.752Z,78.83
2022-10-18T03:23:17.255Z,78.52
2022-10-18T03:24:18.717Z,78.74
2022-10-18T03:25:20.171Z,78.66
2022-10-18T03:26:21.675Z,78.70
2022-10-18T03:27:23.459Z,78.62
2022-10-18T03:28:25.093Z,78.27
2022-10-18T03:29:26.566Z,78.61
2022-10-18T03:30:28.046Z,78.20
2022-10-18T03:32:36.134Z,78.05
2022-10-18T03:33:37.567Z,78.72
2022-10-18T03:34:38.981Z,78.38
2022-10-18T03:35:40.655Z,78.97
2022-10-18T03:36:42.092Z,79.06
2022-10-18T03:37:43.841Z,79.13
2022-10-18T03:38:45.343Z,79.19
2022-10-18T03:39:46.772Z,79.10
2022-10-18T03:40:48.199Z,79.31
2022-10-18T03:41:49.654Z,79.03
2022-10-18T03:42:51.483Z,78.87
2022-10-18T03:43:52.918Z,78.71
2022-10-18T03:44:54.355Z,79.07
2022-10-18T03:45:56.183Z,79.45
2022-10-18T03:46:57.640Z,79.30
2022-10-18T03:47:59.127Z,79.48
2022-10-18T03:49:00.617Z,79.12
2022-10-18T03:50:02.047Z,78.98
2022-10-18T03:51:03.952Z,78.79
2022-10-18T03:52:05.765Z,78.61
2022-10-18T03:53:07.301Z,78.88
2022-10-18T03:54:08.699Z,78.78
2022-10-18T03:55:10.198Z,78.90
2022-10-18T03:56:11.650Z,78.86
2022-10-18T03:57:13.401Z,78.94
2022-10-18T03:58:14.818Z,79.01
2022-10-18T03:59:17.513Z,79.35
2022-10-18T04:00:19.065Z,78.85
2022-10-18T04:01:20.548Z,79.12
2022-10-18T04:02:22.354Z,79.53
2022-10-18T04:03:24.106Z,79.33
2022-10-18T04:04:25.528Z,79.67
2022-10-18T04:05:30.465Z,79.89
2022-10-18T04:06:31.884Z,80.25
2022-10-18T04:08:36.277Z,80.36
2022-10-18T04:09:37.809Z,80.06
2022-10-18T04:10:39.712Z,79.94
2022-10-18T04:11:41.174Z,79.86
2022-10-18T04:12:42.602Z,80.34
2022-10-18T04:13:44.014Z,79.92
2022-10-18T04:14:45.479Z,80.27
2022-10-18T04:15:46.899Z,80.21
2022-10-18T04:16:48.404Z,80.13
2022-10-18T04:17:49.865Z,80.33
2022-10-18T04:18:51.315Z,80.62
2022-10-18T04:19:52.757Z,80.34
2022-10-18T04:20:54.199Z,80.55
2022-10-18T04:21:55.643Z,79.75
2022-10-18T04:22:57.882Z,79.98
2022-10-18T04:23:59.409Z,79.81
2022-10-18T04:25:01.275Z,80.00
2022-10-18T04:26:02.702Z,79.97
2022-10-18T04:27:07.959Z,80.01
2022-10-18T04:28:09.707Z,79.48
2022-10-18T04:29:11.569Z,79.41
2022-10-18T04:30:13.099Z,79.57
2022-10-18T04:31:14.590Z,79.04
2022-10-18T04:32:16.398Z,79.19
2022-10-18T04:33:18.456Z,79.25
2022-10-18T04:34:19.973Z,79.48
2022-10-18T04:35:24.484Z,79.25
2022-10-18T04:36:25.935Z,79.11
2022-10-18T04:37:27.436Z,79.35
2022-10-18T04:38:29.137Z,79.96
2022-10-18T04:39:30.720Z,79.77
2022-10-18T04:40:32.427Z,79.75
2022-10-18T04:41:33.891Z,80.15
2022-10-18T04:42:35.687Z,80.01
2022-10-18T04:43:37.541Z,80.16
2022-10-18T04:44:39.230Z,80.19
2022-10-18T04:45:40.730Z,80.20
2022-10-18T04:46:42.260Z,80.46
2022-10-18T04:47:43.700Z,80.23
2022-10-18T04:48:45.138Z,80.56
2022-10-18T04:49:46.657Z,80.49
2022-10-18T04:50:49.798Z,80.46
2022-10-18T04:51:51.305Z,80.86
2022-10-18T04:52:53.685Z,80.53
2022-10-18T04:53:55.828Z,80.53
2022-10-18T04:54:57.308Z,80.46
2022-10-18T04:55:58.767Z,80.27
2022-10-18T04:57:00.570Z,80.21
2022-10-18T04:58:02.023Z,80.30
2022-10-18T04:59:03.503Z,79.86
2022-10-18T05:00:05.623Z,80.00
2022-10-18T05:01:07.924Z,79.70
2022-10-18T05:02:09.717Z,79.77
2022-10-18T05:03:13.848Z,79.51
2022-10-18T05:04:15.359Z,79.57
2022-10-18T05:05:16.895Z,79.96
2022-10-18T05:06:18.286Z,79.89
2022-10-18T05:07:20.110Z,79.65
2022-10-18T05:08:21.518Z,80.14
2022-10-18T05:09:24.715Z,79.97
2022-10-18T05:10:26.307Z,80.04
2022-10-18T05:11:27.784Z,80.22
2022-10-18T05:12:29.461Z,80.18
2022-10-18T05:13:31.248Z,80.19
2022-10-18T05:14:32.663Z,79.74
2022-10-18T05:15:34.122Z,80.14
2022-10-18T05:16:35.822Z,80.02
2022-10-18T05:17:37.274Z,79.98
2022-10-18T05:18:38.844Z,80.01
2022-10-18T05:19:40.263Z,79.96
2022-10-18T05:20:41.786Z,80.33
2022-10-18T05:21:43.256Z,80.36
2022-10-18T05:22:45.352Z,80.10
2022-10-18T05:23:47.212Z,80.26
2022-10-18T05:24:48.865Z,80.09
2022-10-18T05:25:51.089Z,80.08
2022-10-18T05:26:52.634Z,80.15
2022-10-18T05:27:54.104Z,80.53
2022-10-18T05:28:55.677Z,80.98
2022-10-18T05:29:58.936Z,80.83
2022-10-18T05:31:07.645Z,81.14
2022-10-18T05:32:09.123Z,81.41
2022-10-18T05:33:11.245Z,81.58
2022-10-18T05:34:12.679Z,81.59
2022-10-18T05:35:14.302Z,81.57
2022-10-18T05:36:16.037Z,81.77
2022-10-18T05:37:18.958Z,82.00
2022-10-18T05:38:20.952Z,81.82
2022-10-18T05:39:22.542Z,81.85
2022-10-18T05:40:23.983Z,81.65
2022-10-18T05:41:25.495Z,81.58
2022-10-18T05:42:26.979Z,81.81
2022-10-18T05:43:29.477Z,81.49
2022-10-18T05:44:31.175Z,81.96
2022-10-18T05:45:32.831Z,81.46
2022-10-18T05:46:34.378Z,81.46
2022-10-18T05:48:44.050Z,81.58
2022-10-18T05:49:45.493Z,81.50
2022-10-18T05:50:46.910Z,81.70
2022-10-18T05:51:48.577Z,81.36
2022-10-18T05:52:50.281Z,81.35
2022-10-18T05:53:52.996Z,81.39
2022-10-18T05:54:54.654Z,81.47
2022-10-18T05:56:00.619Z,81.55
2022-10-18T05:57:02.136Z,81.44
2022-10-18T05:58:04.323Z,81.61
2022-10-18T05:59:10.168Z,81.57
2022-10-18T06:00:12.318Z,81.28
2022-10-18T06:01:14.066Z,81.69
2022-10-18T06:02:15.813Z,81.73
2022-10-18T06:03:17.893Z,81.43
2022-10-18T06:04:19.642Z,81.15
2022-10-18T06:05:21.228Z,80.96
2022-10-18T06:06:22.929Z,80.69
2022-10-18T06:07:24.475Z,81.15
2022-10-18T06:08:25.986Z,80.75
2022-10-18T06:09:28.754Z,80.76
2022-10-18T06:10:30.258Z,80.84
2022-10-18T06:11:32.400Z,80.80
2022-10-18T06:12:33.994Z,80.92
2022-10-18T06:13:39.303Z,81.22
2022-10-18T06:14:40.814Z,81.13
2022-10-18T06:15:42.356Z,81.30
2022-10-18T06:16:44.028Z,81.05
2022-10-18T06:17:45.709Z,81.04
2022-10-18T06:18:49.439Z,81.14
2022-10-18T06:19:50.916Z,81.13
2022-10-18T06:20:59.381Z,81.10
2022-10-18T06:22:00.981Z,81.30
2022-10-18T06:23:02.495Z,81.37
2022-10-18T06:24:04.219Z,81.60
2022-10-18T06:25:06.230Z,81.27
2022-10-18T06:26:10.302Z,81.26
2022-10-18T06:27:11.808Z,81.25
2022-10-18T06:28:13.344Z,81.51
2022-10-18T06:29:15.106Z,81.46
2022-10-18T06:30:16.816Z,81.73
2022-10-18T06:31:18.782Z,81.53
2022-10-18T06:32:20.279Z,81.70
2022-10-18T06:33:22.023Z,81.86
2022-10-18T06:34:23.647Z,82.02
2022-10-18T06:35:25.182Z,81.78
2022-10-18T06:36:27.694Z,82.32
2022-10-18T06:37:30.933Z,82.21
2022-10-18T06:38:33.322Z,82.14
2022-10-18T06:39:34.951Z,82.32
2022-10-18T06:40:38.129Z,82.42
2022-10-18T06:41:39.652Z,82.86
2022-10-18T06:42:41.258Z,82.84
2022-10-18T06:43:43.836Z,83.05
2022-10-18T06:44:45.408Z,83.13
2022-10-18T06:45:46.933Z,83.11
2022-10-18T06:46:50.028Z,83.58
2022-10-18T06:47:51.682Z,83.19
2022-10-18T06:48:53.226Z,83.37
2022-10-18T06:49:54.773Z,83.27
2022-10-18T06:50:59.107Z,83.32
2022-10-18T06:52:02.227Z,83.29
2022-10-18T06:53:06.141Z,83.16
2022-10-18T06:54:17.320Z,82.90
2022-10-18T06:55:19.862Z,83.16
2022-10-18T06:56:21.791Z,82.78
2022-10-18T06:57:23.285Z,82.96
2022-10-18T06:58:24.854Z,83.01
2022-10-18T06:59:28.935Z,83.02
2022-10-18T07:00:32.765Z,82.92
2022-10-18T07:01:34.588Z,83.05
2022-10-18T07:02:37.494Z,83.30
2022-10-18T07:03:39.084Z,83.04
2022-10-18T07:04:40.549Z,82.95
2022-10-18T07:05:42.034Z,83.08
2022-10-18T07:06:44.014Z,83.18
2022-10-18T07:07:45.616Z,82.97
2022-10-18T07:08:48.882Z,83.09
2022-10-18T07:09:50.362Z,82.83
2022-10-18T07:10:53.262Z,83.10
2022-10-18T07:11:54.752Z,82.78
2022-10-18T07:13:13.730Z,82.87
2022-10-18T07:14:17.963Z,83.02
2022-10-18T07:15:22.917Z,82.84
2022-10-18T07:16:24.434Z,82.93
2022-10-18T07:17:27.326Z,83.00
2022-10-18T07:18:29.010Z,83.24
2022-10-18T07:19:30.539Z,83.19
2022-10-18T07:20:31.993Z,83.19
2022-10-18T07:21:35.534Z,82.97
2022-10-18T07:22:38.253Z,82.97
2022-10-18T07:23:41.876Z,83.17
2022-10-18T07:24:43.383Z,83.28
2022-10-18T07:25:44.863Z,83.13
2022-10-18T07:26:47.348Z,83.06
2022-10-18T07:27:48.865Z,82.84
2022-10-18T07:28:57.885Z,82.85
2022-10-18T07:29:59.648Z,82.79
2022-10-18T07:31:06.209Z,82.67
2022-10-18T07:32:08.646Z,82.81
2022-10-18T07:33:10.077Z,82.68
2022-10-18T07:34:13.328Z,82.66
2022-10-18T07:35:14.941Z,82.79
2022-10-18T07:36:16.725Z,82.61
2022-10-18T07:37:18.748Z,82.71
2022-10-18T07:38:20.342Z,82.42
2022-10-18T07:39:22.413Z,82.29
2022-10-18T07:40:23.989Z,82.37
2022-10-18T07:41:25.839Z,82.00
2022-10-18T07:42:27.429Z,82.03
2022-10-18T07:43:30.037Z,81.92
2022-10-18T07:44:31.855Z,82.04
2022-10-18T07:45:33.345Z,81.94
2022-10-18T07:46:35.146Z,81.67
2022-10-18T07:47:36.852Z,81.63
2022-10-18T07:48:38.568Z,81.76
2022-10-18T07:49:39.980Z,81.68
2022-10-18T07:50:41.459Z,82.19
2022-10-18T07:51:42.924Z,82.29
2022-10-18T07:52:44.330Z,82.13
2022-10-18T07:53:46.563Z,81.92
2022-10-18T07:56:03.498Z,81.63
2022-10-18T07:57:07.396Z,81.58
2022-10-18T07:58:08.810Z,81.66
2022-10-18T07:59:11.215Z,81.48
2022-10-18T08:00:12.982Z,81.38
2022-10-18T08:01:15.435Z,81.24
2022-10-18T08:02:16.897Z,81.30
2022-10-18T08:03:18.802Z,81.47
2022-10-18T08:04:20.323Z,81.25
2022-10-18T08:05:21.833Z,81.75
2022-10-18T08:06:23.367Z,82.41
2022-10-18T08:07:24.814Z,82.79
2022-10-18T08:08:27.147Z,82.71
2022-10-18T08:09:28.676Z,82.40
2022-10-18T08:10:30.140Z,82.62
2022-10-18T08:11:32.170Z,82.21
2022-10-18T08:12:33.610Z,81.06
2022-10-18T08:13:35.147Z,80.61
2022-10-18T08:14:36.592Z,80.46
2022-10-18T08:15:38.016Z,80.35
2022-10-18T08:16:39.512Z,80.17
2022-10-18T08:17:41.011Z,79.85
2022-10-18T08:18:42.662Z,79.91
2022-10-18T08:19:52.897Z,79.92
2022-10-18T08:21:07.910Z,79.92
2022-10-18T08:22:09.345Z,79.75
2022-10-18T08:23:10.901Z,79.89
2022-10-18T08:24:12.427Z,79.60
2022-10-18T08:25:13.914Z,79.40
2022-10-18T08:26:18.279Z,79.03
2022-10-18T08:27:19.927Z,78.62
2022-10-18T08:28:21.735Z,78.35
2022-10-18T08:29:26.680Z,78.07
2022-10-18T08:30:29.537Z,78.35
2022-10-18T08:31:31.418Z,78.68
2022-10-18T08:32:33.154Z,78.72
2022-10-18T08:33:36.181Z,78.14
2022-10-18T08:35:40.031Z,75.34
2022-10-18T08:36:41.584Z,72.08
2022-10-18T08:37:43.625Z,71.04
2022-10-18T08:38:45.120Z,70.35
2022-10-18T08:39:46.598Z,69.88
2022-10-18T08:40:48.837Z,69.43
2022-10-18T08:42:11.868Z,69.76
2022-10-18T08:43:31.617Z,70.14
2022-10-18T08:44:33.783Z,70.29
2022-10-18T08:45:43.264Z,70.90
2022-10-18T08:46:47.695Z,69.72
2022-10-18T08:47:51.999Z,68.89
2022-10-18T08:48:56.807Z,67.72
2022-10-18T08:50:02.651Z,66.64
2022-10-18T08:51:07.043Z,65.81
2022-10-18T08:54:02.625Z,64.34
2022-10-18T08:55:10.168Z,66.50
2022-10-18T08:56:15.055Z,66.11
2022-10-18T08:57:18.293Z,65.49
2022-10-18T08:58:22.861Z,65.48
2022-10-18T08:59:25.539Z,65.21
2022-10-18T09:00:31.336Z,65.73
2022-10-18T09:02:03.636Z,65.84
2022-10-18T09:03:38.490Z,67.35
2022-10-18T09:05:04.852Z,67.27
2022-10-18T09:06:33.447Z,68.37
2022-10-18T09:08:09.751Z,70.29
2022-10-18T09:09:40.250Z,70.12
2022-10-18T09:10:44.628Z,70.45
2022-10-18T09:12:13.805Z,69.38
2022-10-18T09:13:32.904Z,69.41
2022-10-18T09:14:51.174Z,69.08
2022-10-18T09:15:59.884Z,68.93
2022-10-18T09:17:29.909Z,68.48
2022-10-18T09:19:03.513Z,69.26
2022-10-18T09:20:22.085Z,70.32
2022-10-18T09:21:27.359Z,70.80
2022-10-18T09:22:53.076Z,71.43
2022-10-18T09:24:07.689Z,70.72
2022-10-18T09:25:22.255Z,70.60
2022-10-18T09:26:33.903Z,71.14
2022-10-18T09:27:44.692Z,70.89
2022-10-18T09:28:54.488Z,70.68
2022-10-18T09:30:06.128Z,70.73
2022-10-18T09:31:12.537Z,71.20
2022-10-18T09:32:39.079Z,70.33
2022-10-18T09:33:56.608Z,70.29
2022-10-18T09:35:01.266Z,70.49
2022-10-18T09:36:06.423Z,70.68
2022-10-18T09:37:18.565Z,70.63
2022-10-18T09:39:35.281Z,70.16
2022-10-18T09:40:46.619Z,70.16
2022-10-18T09:42:26.484Z,69.82
2022-10-18T09:43:49.391Z,69.52
2022-10-18T09:44:59.694Z,69.91
2022-10-18T09:46:02.977Z,70.31
2022-10-18T09:47:18.938Z,70.53
2022-10-18T09:48:29.243Z,71.02
2022-10-18T09:49:39.619Z,70.86
2022-10-18T09:50:52.912Z,70.54
2022-10-18T09:51:55.448Z,70.97
2022-10-18T09:53:35.208Z,71.37
2022-10-18T09:54:58.086Z,70.84
2022-10-18T09:56:20.523Z,70.18
2022-10-18T09:57:27.386Z,70.22
2022-10-18T09:58:46.951Z,69.93
2022-10-18T09:59:50.581Z,69.73
2022-10-18T10:00:53.044Z,69.83
2022-10-18T10:01:54.622Z,70.06
2022-10-18T10:02:56.222Z,70.90
2022-10-18T10:03:57.825Z,70.75
2022-10-18T10:04:59.307Z,70.82
2022-10-18T10:06:14.793Z,71.44
2022-10-18T10:07:31.066Z,71.08
2022-10-18T10:08:35.541Z,70.86
2022-10-18T10:09:46.199Z,70.64
2022-10-18T10:10:48.051Z,70.51
2022-10-18T10:11:51.497Z,70.25
2022-10-18T10:13:24.398Z,70.39
2022-10-18T10:14:28.231Z,70.97
2022-10-18T10:15:33.177Z,70.65
2022-10-18T10:16:59.490Z,70.68
2022-10-18T10:18:07.256Z,70.56
2022-10-18T10:19:23.444Z,70.53
2022-10-18T10:21:05.719Z,70.83
2022-10-18T10:22:10.626Z,71.13
2022-10-18T10:23:25.111Z,71.39
2022-10-18T10:24:35.497Z,71.67
2022-10-18T10:25:38.789Z,71.24
2022-10-18T10:26:40.251Z,71.04
2022-10-18T10:27:45.885Z,71.11
2022-10-18T10:28:48.858Z,70.78
2022-10-18T10:29:55.921Z,70.72
2022-10-18T10:31:23.636Z,70.54
2022-10-18T10:32:44.647Z,70.44
2022-10-18T10:33:47.602Z,69.94
2022-10-18T10:34:50.259Z,69.93
2022-10-18T10:35:59.044Z,69.24
2022-10-18T10:37:00.584Z,69.27
2022-10-18T10:38:02.979Z,69.13
2022-10-18T10:39:13.316Z,69.34
2022-10-18T10:40:28.657Z,69.33
2022-10-18T10:43:13.053Z,69.32
2022-10-18T10:44:31.906Z,69.29
2022-10-18T10:45:39.110Z,69.37
2022-10-18T10:46:40.642Z,69.35
2022-10-18T10:47:42.164Z,69.55
2022-10-18T10:49:04.128Z,69.57
2022-10-18T10:50:24.452Z,69.61
2022-10-18T10:51:33.192Z,69.47
2022-10-18T10:52:34.681Z,69.25
2022-10-18T10:53:57.532Z,68.99
2022-10-18T10:55:06.100Z,69.36
2022-10-18T10:56:24.026Z,70.25
2022-10-18T10:57:29.191Z,70.73
2022-10-18T10:58:37.962Z,71.15
2022-10-18T10:59:45.836Z,70.88
2022-10-18T11:00:47.293Z,70.76
2022-10-18T11:01:51.334Z,70.80
2022-10-18T11:03:28.509Z,70.83
2022-10-18T11:04:31.011Z,71.09
2022-10-18T11:05:43.642Z,70.33
2022-10-18T11:06:52.152Z,70.77
2022-10-18T11:07:58.547Z,70.50
2022-10-18T11:09:03.286Z,70.52
2022-10-18T11:10:10.656Z,71.09
2022-10-18T11:11:30.928Z,71.26
2022-10-18T11:12:34.478Z,71.25
2022-10-18T11:13:53.395Z,71.92
2022-10-18T11:15:22.151Z,72.35
2022-10-18T11:16:36.662Z,73.29
2022-10-18T11:18:05.793Z,74.99
2022-10-18T11:19:39.360Z,76.32
2022-10-18T11:20:47.346Z,77.17
2022-10-18T11:21:49.124Z,78.13
2022-10-18T11:22:56.617Z,78.13
2022-10-18T11:23:59.689Z,78.79
2022-10-18T11:25:03.834Z,78.99
2022-10-18T11:26:05.206Z,79.20
2022-10-18T11:27:24.519Z,79.75
2022-10-18T11:29:03.653Z,79.54
2022-10-18T11:30:13.906Z,79.80
2022-10-18T11:31:22.983Z,80.03
2022-10-18T11:32:56.440Z,80.37
2022-10-18T11:34:09.149Z,80.92
2022-10-18T11:35:30.232Z,81.45
2022-10-18T11:37:34.485Z,81.05
2022-10-18T11:38:42.165Z,81.29
2022-10-18T11:39:52.507Z,81.56
2022-10-18T11:40:56.927Z,81.81
2022-10-18T11:42:43.749Z,81.52
2022-10-18T11:44:08.204Z,81.69
2022-10-18T11:45:24.710Z,81.63
2022-10-18T11:46:42.045Z,81.39
2022-10-18T11:47:58.730Z,81.71
2022-10-18T11:49:16.562Z,81.39
2022-10-18T11:50:45.452Z,81.46
2022-10-18T11:52:07.790Z,81.50
2022-10-18T11:53:38.022Z,81.21
2022-10-18T11:54:51.712Z,81.65
2022-10-18T11:56:22.624Z,81.97
2022-10-18T11:57:52.219Z,82.24
2022-10-18T11:59:18.605Z,82.02
2022-10-18T12:00:32.280Z,82.75
2022-10-18T12:01:51.636Z,82.71
2022-10-18T12:03:15.264Z,82.31
2022-10-18T12:04:24.461Z,83.26
2022-10-18T12:05:26.739Z,83.26
2022-10-18T12:06:35.079Z,83.41
2022-10-18T12:07:42.422Z,83.26
2022-10-18T12:08:49.370Z,83.44
2022-10-18T12:09:54.831Z,83.24
2022-10-18T12:11:04.981Z,83.13
2022-10-18T12:12:16.521Z,83.49
2022-10-18T12:13:44.339Z,83.30
2022-10-18T12:14:56.530Z,83.23
2022-10-18T12:15:58.322Z,83.22
2022-10-18T12:17:41.720Z,83.29
2022-10-18T12:18:30.664Z,82.70
2022-10-18T12:19:35.407Z,82.63
2022-10-18T12:20:46.167Z,83.24
2022-10-18T12:21:47.858Z,83.15
2022-10-18T12:23:04.452Z,82.99
2022-10-18T12:24:16.182Z,83.15
2022-10-18T12:25:18.984Z,82.90
2022-10-18T12:26:21.459Z,83.06
2022-10-18T12:27:36.550Z,83.33
2022-10-18T12:28:38.408Z,83.58
2022-10-18T12:30:14.293Z,83.73
2022-10-18T12:31:15.658Z,83.52
2022-10-18T12:32:22.259Z,83.50
2022-10-18T12:33:29.181Z,83.24
2022-10-18T12:34:43.505Z,83.29
2022-10-18T12:35:59.961Z,83.64
2022-10-18T12:37:39.875Z,83.43
2022-10-18T12:38:45.411Z,83.18
2022-10-18T12:40:10.483Z,83.28
2022-10-18T12:41:28.268Z,83.59
2022-10-18T12:42:33.658Z,83.16
2022-10-18T12:43:38.344Z,83.02
2022-10-18T12:44:39.992Z,83.16
2022-10-18T12:45:56.967Z,83.19
2022-10-18T12:47:01.255Z,83.15
2022-10-18T12:48:06.528Z,82.79
2022-10-18T12:49:12.511Z,82.76
2022-10-18T12:50:28.067Z,82.73
2022-10-18T12:51:29.740Z,82.99
2022-10-18T12:52:37.029Z,83.08
2022-10-18T12:53:39.701Z,82.78
2022-10-18T12:54:41.163Z,82.67
2022-10-18T12:55:45.353Z,82.63
2022-10-18T12:56:47.647Z,83.01
2022-10-18T12:58:03.074Z,82.62
2022-10-18T12:59:16.397Z,82.52
2022-10-18T13:00:29.939Z,82.81
2022-10-18T13:01:51.449Z,82.85
2022-10-18T13:03:18.503Z,82.73
2022-10-18T13:04:29.204Z,82.57
2022-10-18T13:05:55.696Z,82.67
2022-10-18T13:07:00.696Z,82.59
2022-10-18T13:08:27.929Z,82.58
2022-10-18T13:09:37.148Z,82.76
2022-10-18T13:10:39.321Z,82.57
2022-10-18T13:11:40.819Z,82.66
2022-10-18T13:12:54.319Z,82.54
2022-10-18T13:14:05.569Z,82.71
2022-10-18T13:15:44.261Z,82.93
2022-10-18T13:16:56.405Z,83.01
2022-10-18T13:18:03.288Z,83.36
2022-10-18T13:19:38.365Z,83.46
2022-10-18T13:20:46.193Z,83.77
2022-10-18T13:22:15.443Z,84.07
2022-10-18T13:23:37.833Z,83.97
2022-10-18T13:25:01.721Z,83.79
2022-10-18T13:26:31.903Z,84.22
2022-10-18T13:27:43.505Z,83.87
2022-10-18T13:29:06.024Z,83.71
2022-10-18T13:30:41.589Z,83.21
2022-10-18T13:33:30.652Z,82.49
2022-10-18T13:34:35.272Z,82.30
2022-10-18T13:35:57.094Z,82.65
2022-10-18T13:37:05.083Z,82.65
2022-10-18T13:38:39.975Z,82.58
2022-10-18T13:39:41.855Z,82.41
2022-10-18T13:40:43.430Z,82.80
2022-10-18T13:41:47.868Z,82.86
2022-10-18T13:42:49.504Z,82.72
2022-10-18T13:43:53.958Z,82.56
2022-10-18T13:45:16.305Z,82.36
2022-10-18T13:46:42.536Z,82.31
2022-10-18T13:47:44.021Z,82.38
2022-10-18T13:48:52.897Z,82.33
2022-10-18T13:50:18.247Z,81.30
2022-10-18T13:51:33.098Z,81.18
2022-10-18T13:52:53.230Z,81.30
2022-10-18T13:54:06.655Z,81.35
2022-10-18T13:55:23.304Z,81.08
2022-10-18T13:56:39.280Z,81.10
2022-10-18T13:57:59.663Z,81.10
2022-10-18T13:59:18.397Z,80.74
2022-10-18T14:00:51.153Z,79.95
2022-10-18T14:02:05.063Z,80.25
2022-10-18T14:04:02.241Z,80.24
2022-10-18T14:05:25.876Z,80.42
2022-10-18T14:06:35.104Z,80.44
2022-10-18T14:07:37.693Z,80.49
2022-10-18T14:08:44.336Z,80.36
2022-10-18T14:09:56.082Z,80.70
2022-10-18T14:11:06.123Z,81.00
2022-10-18T14:12:21.628Z,80.78
2022-10-18T14:13:28.772Z,80.70
2022-10-18T14:14:41.222Z,80.30
2022-10-18T14:15:47.222Z,79.95
2022-10-18T14:17:18.138Z,80.04
2022-10-18T14:18:28.989Z,79.80
2022-10-18T14:19:52.274Z,79.83
2022-10-18T14:21:13.294Z,80.25
2022-10-18T14:22:22.041Z,80.28
2022-10-18T14:23:33.849Z,79.86
2022-10-18T14:24:35.747Z,79.76
2022-10-18T14:25:38.499Z,79.83
2022-10-18T14:27:50.894Z,79.63
2022-10-18T14:29:16.023Z,79.96
2022-10-18T14:30:20.274Z,79.63
2022-10-18T14:31:21.742Z,79.23
2022-10-18T14:32:29.234Z,79.03
2022-10-18T14:33:35.231Z,79.04
2022-10-18T14:34:37.861Z,78.71
2022-10-18T14:35:41.485Z,78.76
2022-10-18T14:36:47.694Z,78.34
2022-10-18T14:37:51.463Z,78.10
2022-10-18T14:39:02.522Z,78.28
2022-10-18T14:40:04.691Z,78.45
2022-10-18T14:41:07.634Z,78.48